Time;durP1;ratioP1;P1;durP2;ratioP2;P2;SDS_P1;SDS_P2;PMS_P1;PMS_P2;Temp;Humidity;BMP_temperature;BMP_pressure;BME280_temperature;BME280_humidity;BME280_pressure;Samples;Min_cycle;Max_cycle;Signal;HPM_P1;HPM_P2
2022/06/22 00:00:54;;;;;;;1.93;1.30;;;;;;;;;;4924661;28;88839;-76
2022/06/22 00:03:31;;;;;;;2.67;1.40;;;;;;;;;;4914370;28;90641;-75
2022/06/22 00:06:00;;;;;;;2.10;1.90;;;;;;;;;;4918628;28;93525;-75
2022/06/22 00:08:30;;;;;;;2.03;1.20;;;;;;;;;;4907750;28;88423;-75
2022/06/22 00:11:02;;;;;;;1.70;1.50;;;;;;;;;;4904810;28;88592;-75
2022/06/22 00:13:31;;;;;;;2.83;1.73;;;;;;;;;;4919376;28;93752;-76
2022/06/22 00:16:01;;;;;;;2.53;1.63;;;;;;;;;;4922524;28;88630;-75
2022/06/22 00:18:54;;;;;;;3.00;1.43;;;;;;;;;;4916623;28;88557;-75
2022/06/22 00:21:25;;;;;;;2.10;1.80;;;;;;;;;;4915478;28;88552;-75
2022/06/22 00:24:23;;;;;;;2.80;1.40;;;;;;;;;;4904650;28;90946;-75
2022/06/22 00:27:01;;;;;;;2.10;1.30;;;;;;;;;;4918728;28;88619;-75
2022/06/22 00:29:35;;;;;;;1.80;1.60;;;;;;;;;;4908188;28;88435;-75
2022/06/22 00:32:04;;;;;;;1.90;1.70;;;;;;;;;;4920602;28;88495;-75
2022/06/22 00:34:36;;;;;;;2.03;1.37;;;;;;;;;;4908777;28;90635;-75
2022/06/22 00:37:08;;;;;;;1.63;1.50;;;;;;;;;;4913966;28;89912;-75
2022/06/22 00:39:39;;;;;;;2.70;1.20;;;;;;;;;;4904829;28;88403;-75
2022/06/22 00:42:21;;;;;;;1.83;1.70;;;;;;;;;;4915867;28;88637;-75
2022/06/22 00:44:53;;;;;;;3.63;1.53;;;;;;;;;;4907054;28;92716;-75
2022/06/22 00:47:25;;;;;;;1.53;1.43;;;;;;;;;;4909006;28;92404;-75
2022/06/22 00:49:56;;;;;;;3.93;1.77;;;;;;;;;;4919072;28;88502;-75
2022/06/22 00:52:40;;;;;;;1.57;1.27;;;;;;;;;;4911482;28;88453;-75
2022/06/22 00:55:18;;;;;;;2.77;1.40;;;;;;;;;;4902858;28;90945;-75
2022/06/22 00:57:50;;;;;;;0.90;0.90;;;;;;;;;;4907220;28;89618;-76
2022/06/22 01:00:22;;;;;;;1.23;1.00;;;;;;;;;;4906169;28;88583;-75
2022/06/22 01:02:52;;;;;;;1.93;1.17;;;;;;;;;;4922568;28;88566;-75
2022/06/22 01:05:27;;;;;;;1.00;0.90;;;;;;;;;;4910964;28;90790;-75
2022/06/22 01:08:11;;;;;;;0.73;0.73;;;;;;;;;;4921331;28;90737;-75
2022/06/22 01:10:42;;;;;;;1.20;1.00;;;;;;;;;;4912778;28;88369;-75
2022/06/22 01:13:21;;;;;;;1.70;1.60;;;;;;;;;;4909276;28;88416;-75
2022/06/22 01:16:00;;;;;;;1.03;0.83;;;;;;;;;;4918833;28;92097;-75
2022/06/22 01:18:29;;;;;;;3.90;1.60;;;;;;;;;;4919382;28;92779;-75
2022/06/22 01:21:00;;;;;;;4.83;2.00;;;;;;;;;;4904359;28;88455;-75
2022/06/22 01:23:55;;;;;;;3.33;2.10;;;;;;;;;;4919448;28;88552;-75
2022/06/22 01:26:40;;;;;;;3.03;2.50;;;;;;;;;;4916121;28;91060;-75
2022/06/22 01:29:33;;;;;;;4.77;2.70;;;;;;;;;;4907424;28;90143;-75
2022/06/22 01:32:04;;;;;;;2.93;2.30;;;;;;;;;;4921668;28;88403;-75
2022/06/22 01:34:38;;;;;;;2.83;2.10;;;;;;;;;;4921815;28;89201;-75
2022/06/22 01:37:09;;;;;;;3.83;2.43;;;;;;;;;;4921996;28;92699;-75
2022/06/22 01:39:38;;;;;;;5.93;3.50;;;;;;;;;;4915210;28;90410;-75
2022/06/22 01:42:14;;;;;;;5.23;3.17;;;;;;;;;;4913376;28;88562;-75
2022/06/22 01:44:53;;;;;;;8.93;3.17;;;;;;;;;;4922256;28;88719;-74
2022/06/22 01:47:25;;;;;;;5.90;2.80;;;;;;;;;;4917734;28;89205;-75
2022/06/22 01:50:13;;;;;;;4.20;2.90;;;;;;;;;;4854582;29;88841;-76
2022/06/22 01:52:48;;;;;;;2.53;2.20;;;;;;;;;;4852991;29;88557;-76
2022/06/22 01:55:23;;;;;;;2.60;2.10;;;;;;;;;;4843584;29;88743;-76
2022/06/22 01:57:59;;;;;;;3.63;2.17;;;;;;;;;;4851873;29;90611;-76
2022/06/22 02:00:30;;;;;;;3.87;2.17;;;;;;;;;;4854768;29;89990;-76
2022/06/22 02:03:01;;;;;;;4.83;2.27;;;;;;;;;;4862821;29;88466;-76
2022/06/22 02:05:36;;;;;;;4.10;1.83;;;;;;;;;;4857071;29;88685;-75
2022/06/22 02:08:07;;;;;;;2.77;2.10;;;;;;;;;;4859971;29;90964;-75
2022/06/22 02:10:41;;;;;;;2.73;2.33;;;;;;;;;;4858308;28;88561;-75
2022/06/22 02:13:36;;;;;;;4.70;4.20;;;;;;;;;;4851587;29;88641;-75
2022/06/22 02:16:15;;;;;;;6.23;3.17;;;;;;;;;;4844123;29;88750;-75
2022/06/22 02:18:50;;;;;;;8.00;4.50;;;;;;;;;;4844302;29;90094;-75
2022/06/22 02:21:23;;;;;;;11.80;8.43;;;;;;;;;;4886185;28;88943;-75
2022/06/22 02:23:55;;;;;;;13.63;6.37;;;;;;;;;;4921698;28;89406;-75
2022/06/22 02:26:27;;;;;;;17.10;6.10;;;;;;;;;;4917632;28;88621;-75
2022/06/22 02:28:56;;;;;;;10.00;5.90;;;;;;;;;;4906417;28;93113;-75
2022/06/22 02:31:36;;;;;;;6.77;4.10;;;;;;;;;;4890214;28;88985;-75
2022/06/22 02:34:15;;;;;;;10.40;6.70;;;;;;;;;;4906675;28;88395;-76
2022/06/22 02:36:53;;;;;;;12.23;6.10;;;;;;;;;;4925089;28;88321;-74
2022/06/22 02:39:32;;;;;;;10.33;7.17;;;;;;;;;;4924003;28;89554;-75
2022/06/22 02:44:48;;;;;;;9.67;6.90;;;;;;;;;;4923672;28;88565;-75
2022/06/22 02:47:35;;;;;;;21.40;11.60;;;;;;;;;;4923271;28;89317;-75
2022/06/22 02:50:10;;;;;;;14.37;8.60;;;;;;;;;;4907217;28;93182;-75
2022/06/22 02:52:42;;;;;;;11.17;7.90;;;;;;;;;;4925053;28;89940;-75
2022/06/22 02:55:18;;;;;;;10.37;7.90;;;;;;;;;;4922967;28;88580;-75
2022/06/22 02:58:02;;;;;;;12.70;7.23;;;;;;;;;;4918978;28;88663;-76
2022/06/22 03:00:43;;;;;;;9.97;7.03;;;;;;;;;;4924647;28;89385;-75
2022/06/22 03:03:18;;;;;;;13.20;7.40;;;;;;;;;;4924184;28;89097;-75
2022/06/22 03:05:54;;;;;;;10.17;6.80;;;;;;;;;;4924839;28;88417;-75
2022/06/22 03:08:26;;;;;;;10.83;7.43;;;;;;;;;;4924072;28;88452;-75
2022/06/22 03:10:56;;;;;;;12.60;7.77;;;;;;;;;;4921871;28;88489;-75
2022/06/22 03:13:26;;;;;;;16.63;9.07;;;;;;;;;;4900934;28;90681;-75
2022/06/22 03:15:55;;;;;;;13.97;9.40;;;;;;;;;;4924077;28;88724;-75
2022/06/22 03:18:26;;;;;;;13.10;8.93;;;;;;;;;;4922172;28;88676;-77
2022/06/22 03:20:58;;;;;;;13.23;8.50;;;;;;;;;;4921852;28;88563;-76
2022/06/22 03:23:30;;;;;;;12.03;7.67;;;;;;;;;;4920857;28;92026;-76
2022/06/22 03:26:01;;;;;;;16.03;9.93;;;;;;;;;;4915567;28;88505;-75
2022/06/22 03:28:31;;;;;;;18.63;9.57;;;;;;;;;;4916643;28;88498;-76
2022/06/22 03:31:03;;;;;;;13.73;8.20;;;;;;;;;;4902033;28;91409;-76
2022/06/22 03:36:33;;;;;;;10.77;7.50;;;;;;;;;;4908402;28;88380;-75
2022/06/22 03:39:08;;;;;;;10.73;8.10;;;;;;;;;;4911195;28;88554;-75
2022/06/22 03:44:27;;;;;;;8.83;6.73;;;;;;;;;;4923545;28;92003;-75
2022/06/22 03:47:05;;;;;;;8.50;6.03;;;;;;;;;;4921089;28;88572;-76
2022/06/22 03:49:36;;;;;;;11.03;6.80;;;;;;;;;;4914104;28;88630;-75
2022/06/22 03:52:15;;;;;;;8.07;6.07;;;;;;;;;;4924209;28;93394;-76
2022/06/22 03:55:01;;;;;;;8.63;5.77;;;;;;;;;;4919019;28;90341;-76
2022/06/22 03:57:30;;;;;;;7.37;5.63;;;;;;;;;;4922446;28;90296;-76
2022/06/22 04:00:00;;;;;;;12.53;6.37;;;;;;;;;;4919949;28;88574;-75
2022/06/22 04:02:29;;;;;;;12.80;6.37;;;;;;;;;;4920688;28;88546;-76
2022/06/22 04:05:00;;;;;;;8.00;5.70;;;;;;;;;;4921266;28;89451;-76
2022/06/22 04:07:30;;;;;;;7.47;5.47;;;;;;;;;;4923741;28;88619;-75
2022/06/22 04:10:01;;;;;;;10.27;5.87;;;;;;;;;;4922273;28;88672;-76
2022/06/22 04:12:33;;;;;;;9.97;5.33;;;;;;;;;;4923260;28;91012;-78
2022/06/22 04:15:02;;;;;;;11.73;5.03;;;;;;;;;;4920556;28;88587;-76
2022/06/22 04:17:44;;;;;;;6.87;4.60;;;;;;;;;;4920709;28;88562;-76
2022/06/22 04:20:20;;;;;;;8.67;5.23;;;;;;;;;;4902853;28;88432;-76
2022/06/22 04:22:53;;;;;;;9.07;4.97;;;;;;;;;;4921771;28;93354;-75
2022/06/22 04:25:27;;;;;;;8.80;4.90;;;;;;;;;;4919981;28;89292;-76
2022/06/22 04:27:58;;;;;;;8.30;5.30;;;;;;;;;;4919933;28;88408;-76
2022/06/22 04:30:27;;;;;;;5.37;4.57;;;;;;;;;;4918385;28;88408;-76
2022/06/22 04:33:09;;;;;;;7.80;4.83;;;;;;;;;;4912434;28;92804;-75
2022/06/22 04:35:46;;;;;;;7.50;5.10;;;;;;;;;;4914380;28;88628;-76
2022/06/22 04:38:30;;;;;;;6.13;4.70;;;;;;;;;;4907311;28;88608;-76
2022/06/22 04:41:03;;;;;;;5.33;4.67;;;;;;;;;;4904936;28;88750;-76
2022/06/22 04:43:32;;;;;;;7.80;4.57;;;;;;;;;;4904569;28;90712;-76
2022/06/22 04:46:01;;;;;;;5.80;4.13;;;;;;;;;;4910144;28;89111;-75
2022/06/22 04:51:22;;;;;;;6.37;4.07;;;;;;;;;;4919785;28;88729;-75
2022/06/22 04:53:52;;;;;;;7.17;4.50;;;;;;;;;;4918930;28;90717;-76
2022/06/22 04:56:28;;;;;;;5.40;4.10;;;;;;;;;;4918996;28;93473;-75
2022/06/22 04:58:56;;;;;;;8.40;4.47;;;;;;;;;;4917348;28;89010;-75
2022/06/22 05:01:37;;;;;;;6.43;4.10;;;;;;;;;;4903297;28;88576;-76
2022/06/22 05:04:14;;;;;;;4.60;4.07;;;;;;;;;;4918718;28;90867;-69
2022/06/22 05:09:33;;;;;;;5.67;3.50;;;;;;;;;;4903203;28;91383;-70
2022/06/22 05:12:05;;;;;;;7.23;3.30;;;;;;;;;;4920373;28;88711;-70
2022/06/22 05:14:44;;;;;;;5.03;3.30;;;;;;;;;;4920948;28;89709;-71
2022/06/22 05:17:17;;;;;;;4.27;3.40;;;;;;;;;;4908613;28;90047;-70
2022/06/22 05:19:48;;;;;;;6.50;3.60;;;;;;;;;;4918645;28;89266;-71
2022/06/22 05:22:31;;;;;;;5.93;3.70;;;;;;;;;;4906196;28;88751;-72
2022/06/22 05:25:02;;;;;;;5.13;3.83;;;;;;;;;;4918449;28;93476;-71
2022/06/22 05:27:35;;;;;;;3.97;3.23;;;;;;;;;;4892914;28;89029;-71
2022/06/22 05:30:07;;;;;;;6.53;3.83;;;;;;;;;;4886619;28;89611;-68
2022/06/22 05:32:40;;;;;;;9.70;2.93;;;;;;;;;;4908948;28;88589;-70
2022/06/22 05:35:18;;;;;;;3.90;2.87;;;;;;;;;;4905163;28;91175;-70
2022/06/22 05:37:59;;;;;;;4.13;2.40;;;;;;;;;;4907808;28;90143;-71
2022/06/22 05:40:50;;;;;;;4.37;2.80;;;;;;;;;;4914354;28;88885;-69
2022/06/22 05:43:30;;;;;;;3.37;2.70;;;;;;;;;;4910052;28;88453;-68
2022/06/22 05:46:02;;;;;;;8.77;2.90;;;;;;;;;;4908695;28;90671;-70
2022/06/22 05:48:34;;;;;;;3.10;2.43;;;;;;;;;;4916549;28;88547;-69
2022/06/22 05:51:08;;;;;;;5.20;2.90;;;;;;;;;;4907874;28;91229;-69
2022/06/22 05:53:42;;;;;;;4.43;2.23;;;;;;;;;;4908223;28;89718;-71
2022/06/22 05:56:14;;;;;;;3.33;2.40;;;;;;;;;;4899788;28;92377;-69
2022/06/22 06:01:32;;;;;;;3.37;2.27;;;;;;;;;;4886229;28;89136;-69
2022/06/22 06:04:02;;;;;;;2.97;2.37;;;;;;;;;;4904021;28;88595;-69
2022/06/22 06:06:45;;;;;;;2.30;1.97;;;;;;;;;;4912553;28;93519;-69
2022/06/22 06:09:20;;;;;;;6.07;2.37;;;;;;;;;;4920516;28;89247;-69
2022/06/22 06:11:49;;;;;;;3.07;2.17;;;;;;;;;;4912812;28;91931;-70
2022/06/22 06:14:22;;;;;;;2.23;1.90;;;;;;;;;;4906613;28;88651;-69
2022/06/22 06:16:51;;;;;;;2.77;1.80;;;;;;;;;;4907885;28;92834;-69
2022/06/22 06:19:22;;;;;;;2.53;2.00;;;;;;;;;;4902069;28;88769;-68
2022/06/22 06:21:56;;;;;;;4.20;2.07;;;;;;;;;;4914693;28;89523;-69
2022/06/22 06:30:15;;;;;;;2.37;2.00;;;;;;;;;;4906862;28;89043;-69
2022/06/22 06:32:46;;;;;;;2.43;1.77;;;;;;;;;;4903992;28;90800;-69
2022/06/22 06:35:23;;;;;;;2.17;1.90;;;;;;;;;;4909480;28;88638;-69
2022/06/22 06:37:55;;;;;;;2.03;1.67;;;;;;;;;;4909699;28;93813;-69
2022/06/22 06:40:25;;;;;;;5.10;1.80;;;;;;;;;;4904071;28;90621;-70
2022/06/22 06:43:03;;;;;;;3.87;1.87;;;;;;;;;;4917041;28;88701;-69
2022/06/22 06:45:33;;;;;;;1.93;1.73;;;;;;;;;;4903103;28;88539;-70
2022/06/22 06:48:02;;;;;;;2.83;1.50;;;;;;;;;;4903935;28;90166;-69
2022/06/22 06:50:33;;;;;;;3.10;1.70;;;;;;;;;;4913890;28;88929;-69
2022/06/22 06:53:06;;;;;;;1.47;1.37;;;;;;;;;;4920869;28;90089;-68
2022/06/22 06:55:36;;;;;;;1.63;1.10;;;;;;;;;;4920488;28;88454;-69
2022/06/22 06:58:16;;;;;;;1.93;1.47;;;;;;;;;;4921128;28;90156;-69
2022/06/22 07:00:52;;;;;;;3.03;1.20;;;;;;;;;;4919765;28;91033;-69
2022/06/22 07:03:24;;;;;;;1.90;1.60;;;;;;;;;;4901005;28;90366;-69
2022/06/22 07:05:54;;;;;;;1.87;1.50;;;;;;;;;;4919587;28;88276;-69
2022/06/22 07:08:34;;;;;;;2.33;1.27;;;;;;;;;;4909428;28;89243;-68
2022/06/22 07:11:11;;;;;;;1.77;1.07;;;;;;;;;;4901933;28;89898;-69
2022/06/22 07:13:41;;;;;;;1.47;1.27;;;;;;;;;;4900928;28;88392;-68
2022/06/22 07:16:14;;;;;;;1.77;1.10;;;;;;;;;;4902544;28;88401;-69
2022/06/22 07:18:46;;;;;;;1.80;1.50;;;;;;;;;;4904858;28;93995;-70
2022/06/22 07:21:20;;;;;;;1.00;0.90;;;;;;;;;;4919342;28;89051;-68
2022/06/22 07:23:51;;;;;;;5.57;1.57;;;;;;;;;;4923943;28;88924;-69
2022/06/22 07:26:27;;;;;;;1.63;1.30;;;;;;;;;;4923859;28;88303;-69
2022/06/22 07:29:08;;;;;;;7.10;1.40;;;;;;;;;;4923732;28;90213;-69
2022/06/22 07:31:41;;;;;;;1.73;1.20;;;;;;;;;;4904470;28;89003;-69
2022/06/22 07:34:28;;;;;;;3.17;1.30;;;;;;;;;;4904051;28;88388;-68
2022/06/22 07:37:01;;;;;;;1.80;0.90;;;;;;;;;;4904510;28;88331;-69
2022/06/22 07:39:31;;;;;;;1.47;1.03;;;;;;;;;;4905754;28;89711;-68
2022/06/22 07:42:00;;;;;;;2.37;1.07;;;;;;;;;;4922980;28;90046;-70
2022/06/22 07:44:37;;;;;;;2.10;1.00;;;;;;;;;;4923454;28;88505;-68
2022/06/22 07:47:09;;;;;;;2.67;1.00;;;;;;;;;;4923423;28;88251;-69
2022/06/22 07:49:42;;;;;;;1.27;1.17;;;;;;;;;;4904445;28;89527;-68
2022/06/22 07:52:13;;;;;;;0.83;0.73;;;;;;;;;;4903786;28;90364;-68
2022/06/22 07:54:48;;;;;;;1.30;1.00;;;;;;;;;;4902965;28;88401;-68
2022/06/22 07:57:23;;;;;;;1.87;1.00;;;;;;;;;;4904010;28;88378;-68
2022/06/22 07:59:55;;;;;;;1.47;1.10;;;;;;;;;;4889428;28;93060;-69
2022/06/22 08:02:53;;;;;;;1.63;1.03;;;;;;;;;;4921887;28;89237;-68
2022/06/22 08:08:07;;;;;;;3.80;1.00;;;;;;;;;;4920381;28;88553;-68
2022/06/22 08:10:48;;;;;;;3.17;0.90;;;;;;;;;;4913614;28;90095;-68
2022/06/22 08:13:19;;;;;;;0.93;0.90;;;;;;;;;;4918743;28;90653;-68
2022/06/22 08:15:48;;;;;;;1.43;0.90;;;;;;;;;;4919497;28;88318;-69
2022/06/22 08:18:20;;;;;;;1.57;0.90;;;;;;;;;;4906137;28;89385;-69
2022/06/22 08:20:49;;;;;;;0.50;0.50;;;;;;;;;;4892589;28;89633;-69
2022/06/22 08:23:31;;;;;;;0.87;0.73;;;;;;;;;;4903322;28;90184;-69
2022/06/22 08:28:55;;;;;;;0.70;0.70;;;;;;;;;;4915750;28;88705;-68
2022/06/22 08:31:27;;;;;;;0.63;0.50;;;;;;;;;;4911252;28;90650;-70
2022/06/22 08:34:06;;;;;;;1.00;0.80;;;;;;;;;;4922591;28;88930;-68
2022/06/22 08:36:39;;;;;;;0.40;0.40;;;;;;;;;;4922813;28;88773;-69
2022/06/22 08:39:11;;;;;;;1.20;1.10;;;;;;;;;;4921634;28;88377;-69
2022/06/22 08:41:44;;;;;;;1.57;0.80;;;;;;;;;;4902624;28;90003;-69
2022/06/22 08:44:21;;;;;;;1.00;0.73;;;;;;;;;;4903560;28;88706;-68
2022/06/22 08:47:10;;;;;;;0.87;0.80;;;;;;;;;;4903293;28;88842;-69
2022/06/22 08:49:58;;;;;;;1.40;0.70;;;;;;;;;;4903459;28;88687;-69
2022/06/22 08:52:36;;;;;;;0.80;0.53;;;;;;;;;;4895189;28;88966;-69
2022/06/22 08:55:31;;;;;;;1.57;0.97;;;;;;;;;;4918656;28;88704;-69
2022/06/22 08:58:11;;;;;;;1.13;1.03;;;;;;;;;;4921990;28;88793;-68
2022/06/22 09:01:02;;;;;;;0.63;0.60;;;;;;;;;;4904264;28;88511;-69
2022/06/22 09:03:46;;;;;;;1.43;0.70;;;;;;;;;;4903002;28;92593;-69
2022/06/22 09:06:23;;;;;;;0.70;0.70;;;;;;;;;;4903030;28;89618;-68
2022/06/22 09:09:03;;;;;;;1.50;0.93;;;;;;;;;;4903488;28;88508;-68
2022/06/22 09:11:46;;;;;;;0.80;0.80;;;;;;;;;;4905745;28;88732;-68
2022/06/22 09:14:49;;;;;;;0.63;0.63;;;;;;;;;;4922319;28;89580;-69
2022/06/22 09:17:38;;;;;;;1.50;0.70;;;;;;;;;;4920273;28;89421;-68
2022/06/22 09:20:15;;;;;;;1.37;0.47;;;;;;;;;;4885481;28;88640;-68
2022/06/22 09:22:52;;;;;;;2.07;0.80;;;;;;;;;;4921553;28;88489;-69
2022/06/22 09:25:31;;;;;;;1.33;0.80;;;;;;;;;;4904832;28;93686;-68
2022/06/22 09:28:03;;;;;;;0.67;0.67;;;;;;;;;;4921456;28;91522;-68
2022/06/22 09:30:44;;;;;;;0.60;0.60;;;;;;;;;;4902779;28;89329;-68
2022/06/22 09:33:34;;;;;;;1.03;0.77;;;;;;;;;;4903028;28;88333;-68
2022/06/22 09:36:19;;;;;;;0.50;0.50;;;;;;;;;;4899716;28;91870;-68
2022/06/22 09:39:16;;;;;;;0.70;0.70;;;;;;;;;;4906039;28;89841;-69
2022/06/22 09:41:51;;;;;;;0.80;0.80;;;;;;;;;;4904462;28;90543;-68
2022/06/22 09:44:31;;;;;;;0.67;0.67;;;;;;;;;;4920872;28;88600;-69
2022/06/22 09:47:08;;;;;;;1.13;0.60;;;;;;;;;;4920607;28;91758;-68
2022/06/22 09:49:46;;;;;;;0.70;0.70;;;;;;;;;;4906959;28;90166;-68
2022/06/22 09:52:18;;;;;;;0.73;0.67;;;;;;;;;;4902410;28;88385;-68
2022/06/22 09:57:46;;;;;;;1.87;0.70;;;;;;;;;;4901784;28;90996;-69
2022/06/22 10:00:20;;;;;;;0.63;0.60;;;;;;;;;;4919702;28;88373;-69
2022/06/22 10:03:07;;;;;;;0.67;0.67;;;;;;;;;;4921423;28;91087;-68
2022/06/22 10:05:54;;;;;;;0.93;0.93;;;;;;;;;;4920904;28;88416;-67
2022/06/22 10:08:29;;;;;;;0.50;0.50;;;;;;;;;;4914928;28;90255;-68
2022/06/22 10:11:02;;;;;;;0.70;0.60;;;;;;;;;;4901807;28;92865;-68
2022/06/22 10:13:46;;;;;;;3.53;0.80;;;;;;;;;;4901841;28;88563;-68
2022/06/22 10:16:26;;;;;;;1.33;0.60;;;;;;;;;;4901503;28;88679;-68
2022/06/22 10:19:05;;;;;;;2.10;0.77;;;;;;;;;;4910599;28;89528;-68
2022/06/22 10:21:38;;;;;;;0.50;0.50;;;;;;;;;;4921517;28;91350;-69
2022/06/22 10:24:19;;;;;;;1.47;0.80;;;;;;;;;;4920958;28;89150;-68
2022/06/22 10:26:51;;;;;;;0.50;0.50;;;;;;;;;;4921102;28;88631;-68
2022/06/22 10:29:43;;;;;;;1.37;0.50;;;;;;;;;;4904263;28;89344;-68
2022/06/22 10:32:20;;;;;;;0.70;0.60;;;;;;;;;;4901774;28;89754;-69
2022/06/22 10:34:55;;;;;;;0.60;0.60;;;;;;;;;;4901331;28;88315;-68
2022/06/22 10:37:36;;;;;;;0.50;0.47;;;;;;;;;;4901446;28;88383;-69
2022/06/22 10:49:04;;;;;;;0.50;0.50;;;;;;;;;;4918255;28;88665;-68
2022/06/22 10:51:42;;;;;;;0.60;0.60;;;;;;;;;;4914659;28;90749;-68
2022/06/22 10:54:32;;;;;;;0.93;0.67;;;;;;;;;;4905266;28;91001;-68
2022/06/22 10:57:13;;;;;;;0.57;0.57;;;;;;;;;;4905155;28;89316;-70
2022/06/22 11:00:02;;;;;;;0.60;0.50;;;;;;;;;;4904155;28;88729;-69
2022/06/22 11:02:48;;;;;;;0.80;0.70;;;;;;;;;;4904343;28;92515;-68
2022/06/22 11:05:27;;;;;;;0.93;0.63;;;;;;;;;;4903068;28;89100;-69
2022/06/22 11:08:06;;;;;;;0.40;0.40;;;;;;;;;;4893077;28;89758;-69
2022/06/22 11:10:41;;;;;;;0.30;0.30;;;;;;;;;;4923942;28;88627;-69
2022/06/22 11:13:20;;;;;;;0.30;0.30;;;;;;;;;;4923085;28;90745;-69
2022/06/22 11:15:52;;;;;;;0.40;0.40;;;;;;;;;;4922831;28;90119;-68
2022/06/22 11:21:18;;;;;;;1.30;0.80;;;;;;;;;;4904558;28;88365;-69
2022/06/22 11:24:11;;;;;;;1.20;0.50;;;;;;;;;;4904789;28;92415;-68
2022/06/22 11:32:33;;;;;;;0.50;0.40;;;;;;;;;;4923052;28;88413;-68
2022/06/22 11:35:35;;;;;;;1.00;0.70;;;;;;;;;;4923651;28;92907;-68
2022/06/22 11:38:12;;;;;;;0.40;0.40;;;;;;;;;;4922328;28;89276;-68
2022/06/22 11:40:45;;;;;;;1.03;0.70;;;;;;;;;;4922849;28;90615;-68
2022/06/22 11:43:23;;;;;;;0.53;0.53;;;;;;;;;;4923465;28;88381;-68
2022/06/22 11:45:58;;;;;;;3.33;0.63;;;;;;;;;;4923270;28;88988;-68
2022/06/22 11:48:36;;;;;;;1.23;0.60;;;;;;;;;;4909019;28;90073;-68
2022/06/22 11:51:13;;;;;;;0.63;0.63;;;;;;;;;;4902841;28;88571;-68
2022/06/22 11:56:39;;;;;;;1.23;0.50;;;;;;;;;;4901045;28;90884;-68
2022/06/22 11:59:13;;;;;;;0.60;0.57;;;;;;;;;;4922396;28;93395;-68
2022/06/22 12:01:45;;;;;;;1.13;0.60;;;;;;;;;;4904626;28;89012;-68
2022/06/22 12:04:23;;;;;;;0.87;0.50;;;;;;;;;;4923408;28;88382;-68
2022/06/22 12:07:02;;;;;;;0.53;0.50;;;;;;;;;;4902915;28;89034;-68
2022/06/22 12:09:39;;;;;;;0.43;0.43;;;;;;;;;;4904300;28;89306;-68
2022/06/22 12:12:27;;;;;;;0.40;0.40;;;;;;;;;;4922380;28;92232;-68
2022/06/22 12:15:07;;;;;;;1.43;0.60;;;;;;;;;;4887057;28;88443;-67
2022/06/22 12:17:46;;;;;;;0.50;0.50;;;;;;;;;;4909753;28;89630;-68
2022/06/22 12:20:19;;;;;;;0.60;0.57;;;;;;;;;;4903355;28;91839;-67
2022/06/22 12:22:49;;;;;;;0.40;0.40;;;;;;;;;;4902663;28;90693;-68
2022/06/22 12:25:28;;;;;;;0.63;0.50;;;;;;;;;;4903463;28;88427;-68
2022/06/22 12:28:01;;;;;;;1.20;0.40;;;;;;;;;;4916245;28;94170;-68
2022/06/22 12:30:38;;;;;;;0.50;0.50;;;;;;;;;;4922383;28;88286;-68
2022/06/22 12:33:19;;;;;;;1.30;0.50;;;;;;;;;;4922633;28;88831;-68
2022/06/22 12:38:35;;;;;;;0.53;0.53;;;;;;;;;;4901318;28;89574;-67
2022/06/22 12:41:28;;;;;;;1.07;0.80;;;;;;;;;;4903151;28;88624;-68
2022/06/22 12:44:06;;;;;;;0.40;0.40;;;;;;;;;;4902777;28;88943;-68
2022/06/22 12:46:45;;;;;;;0.50;0.50;;;;;;;;;;4906047;28;88658;-68
2022/06/22 12:49:19;;;;;;;0.30;0.30;;;;;;;;;;4921750;28;90719;-68
2022/06/22 12:52:15;;;;;;;0.40;0.40;;;;;;;;;;4921082;28;90935;-68
2022/06/22 12:54:45;;;;;;;0.73;0.47;;;;;;;;;;4921033;28;89909;-68
2022/06/22 12:57:15;;;;;;;0.30;0.30;;;;;;;;;;4919867;28;88704;-68
2022/06/22 12:59:50;;;;;;;0.47;0.47;;;;;;;;;;4904675;28;89913;-67
2022/06/22 13:02:27;;;;;;;0.80;0.50;;;;;;;;;;4885528;28;93220;-68
2022/06/22 13:05:13;;;;;;;0.50;0.50;;;;;;;;;;4916115;28;89345;-68
2022/06/22 13:07:56;;;;;;;0.83;0.50;;;;;;;;;;4916259;28;88671;-69
2022/06/22 13:10:40;;;;;;;0.40;0.40;;;;;;;;;;4921646;28;89862;-68
2022/06/22 13:13:12;;;;;;;0.70;0.50;;;;;;;;;;4921188;28;93311;-69
2022/06/22 13:15:43;;;;;;;0.70;0.50;;;;;;;;;;4919856;28;88807;-69
2022/06/22 13:18:30;;;;;;;0.93;0.30;;;;;;;;;;4902515;28;88581;-68
2022/06/22 13:21:04;;;;;;;0.30;0.30;;;;;;;;;;4901928;28;89466;-68
2022/06/22 13:23:45;;;;;;;0.40;0.40;;;;;;;;;;4902388;28;89405;-68
2022/06/22 13:26:18;;;;;;;1.37;0.40;;;;;;;;;;4907682;28;89025;-68
2022/06/22 13:28:49;;;;;;;0.83;0.50;;;;;;;;;;4922053;28;88633;-68
2022/06/22 13:31:18;;;;;;;0.53;0.53;;;;;;;;;;4920847;28;89793;-68
2022/06/22 13:33:49;;;;;;;2.30;0.43;;;;;;;;;;4920779;28;91215;-68
2022/06/22 13:36:22;;;;;;;0.77;0.60;;;;;;;;;;4921127;28;91783;-69
2022/06/22 13:39:02;;;;;;;0.53;0.40;;;;;;;;;;4920640;28;88638;-68
2022/06/22 13:41:45;;;;;;;0.40;0.40;;;;;;;;;;4920727;28;89569;-68
2022/06/22 13:44:29;;;;;;;0.47;0.47;;;;;;;;;;4921416;28;89678;-68
2022/06/22 13:47:19;;;;;;;0.40;0.40;;;;;;;;;;4878651;28;88653;-68
2022/06/22 13:50:13;;;;;;;0.40;0.40;;;;;;;;;;4902612;28;88508;-69
2022/06/22 13:52:57;;;;;;;3.90;0.40;;;;;;;;;;4912348;28;89532;-68
2022/06/22 13:55:36;;;;;;;0.30;0.30;;;;;;;;;;4917386;28;90092;-68
2022/06/22 13:58:18;;;;;;;0.20;0.20;;;;;;;;;;4921198;28;88377;-69
2022/06/22 14:01:19;;;;;;;0.30;0.30;;;;;;;;;;4921264;28;88607;-68
2022/06/22 14:03:49;;;;;;;0.33;0.30;;;;;;;;;;4921265;28;91312;-68
2022/06/22 14:06:29;;;;;;;0.40;0.40;;;;;;;;;;4910108;28;88973;-68
2022/06/22 14:09:00;;;;;;;0.33;0.33;;;;;;;;;;4901786;28;88664;-69
2022/06/22 14:11:37;;;;;;;0.63;0.30;;;;;;;;;;4901829;28;88409;-71
2022/06/22 14:14:15;;;;;;;0.30;0.30;;;;;;;;;;4901542;28;90817;-68
2022/06/22 14:16:47;;;;;;;3.50;0.50;;;;;;;;;;4902037;28;88913;-68
2022/06/22 14:19:33;;;;;;;0.50;0.50;;;;;;;;;;4862198;28;88723;-69
2022/06/22 14:22:08;;;;;;;0.50;0.40;;;;;;;;;;4880650;28;88679;-69
2022/06/22 14:24:42;;;;;;;0.60;0.40;;;;;;;;;;4880667;28;90885;-69
2022/06/22 14:27:20;;;;;;;0.90;0.30;;;;;;;;;;4851050;28;89126;-69
2022/06/22 14:30:08;;;;;;;0.40;0.40;;;;;;;;;;4884183;28;88639;-68
2022/06/22 14:32:42;;;;;;;0.30;0.30;;;;;;;;;;4883577;28;88634;-68
2022/06/22 14:35:26;;;;;;;0.67;0.47;;;;;;;;;;4883018;28;91028;-69
2022/06/22 14:37:56;;;;;;;0.40;0.40;;;;;;;;;;4881487;28;89519;-69
2022/06/22 14:40:26;;;;;;;0.30;0.30;;;;;;;;;;4868612;28;89860;-68
2022/06/22 14:43:06;;;;;;;0.30;0.30;;;;;;;;;;4882823;28;90245;-69
2022/06/22 14:45:37;;;;;;;1.33;0.50;;;;;;;;;;4883541;28;91304;-69
2022/06/22 14:48:06;;;;;;;0.40;0.40;;;;;;;;;;4883421;28;89410;-68
2022/06/22 14:50:37;;;;;;;0.30;0.30;;;;;;;;;;4900636;28;88810;-68
2022/06/22 14:53:14;;;;;;;0.50;0.50;;;;;;;;;;4922715;28;88794;-68
2022/06/22 14:58:52;;;;;;;0.50;0.50;;;;;;;;;;4920906;28;88629;-69
2022/06/22 15:01:26;;;;;;;0.40;0.40;;;;;;;;;;4924299;28;88424;-69
2022/06/22 15:03:57;;;;;;;0.33;0.33;;;;;;;;;;4922840;28;88708;-69
2022/06/22 15:07:00;;;;;;;0.30;0.30;;;;;;;;;;4906925;28;92090;-68
2022/06/22 15:09:42;;;;;;;0.43;0.40;;;;;;;;;;4921639;28;88817;-68
2022/06/22 15:15:06;;;;;;;0.27;0.27;;;;;;;;;;4923596;28;88362;-69
2022/06/22 15:17:41;;;;;;;1.07;0.50;;;;;;;;;;4922906;28;89485;-68
2022/06/22 15:20:22;;;;;;;0.30;0.30;;;;;;;;;;4906405;28;91238;-68
2022/06/22 15:23:04;;;;;;;0.40;0.40;;;;;;;;;;4911448;28;88592;-69
2022/06/22 15:25:57;;;;;;;3.03;0.40;;;;;;;;;;4922831;28;88590;-69
2022/06/22 15:28:30;;;;;;;0.33;0.33;;;;;;;;;;4920513;28;88551;-68
2022/06/22 15:31:04;;;;;;;0.77;0.70;;;;;;;;;;4921453;28;90375;-68
2022/06/22 15:33:58;;;;;;;0.80;0.80;;;;;;;;;;4920811;28;88769;-68
2022/06/22 15:36:28;;;;;;;0.80;0.70;;;;;;;;;;4920927;28;88587;-69
2022/06/22 15:39:00;;;;;;;0.60;0.60;;;;;;;;;;4905293;28;90792;-68
2022/06/22 15:41:54;;;;;;;0.97;0.87;;;;;;;;;;4921640;28;88981;-69
2022/06/22 15:44:34;;;;;;;0.80;0.80;;;;;;;;;;4922147;28;88407;-69
2022/06/22 15:47:03;;;;;;;1.00;0.90;;;;;;;;;;4923602;28;88311;-69
2022/06/22 15:55:50;;;;;;;1.57;1.03;;;;;;;;;;4917814;28;88493;-69
2022/06/22 15:58:27;;;;;;;2.03;1.30;;;;;;;;;;4921265;28;88705;-68
2022/06/22 16:01:06;;;;;;;1.20;1.10;;;;;;;;;;4915935;28;89683;-69
2022/06/22 16:03:35;;;;;;;2.30;1.47;;;;;;;;;;4921268;28;90099;-69
2022/06/22 16:06:21;;;;;;;0.93;0.90;;;;;;;;;;4920663;28;88459;-69
2022/06/22 16:14:58;;;;;;;1.67;1.57;;;;;;;;;;4922887;28;90282;-68
2022/06/22 16:17:41;;;;;;;1.30;1.20;;;;;;;;;;4922908;28;88384;-69
2022/06/22 16:20:35;;;;;;;2.17;1.10;;;;;;;;;;4922137;28;88559;-69
2022/06/22 16:23:38;;;;;;;3.80;1.80;;;;;;;;;;4921834;28;90828;-68
2022/06/22 16:26:30;;;;;;;2.00;1.00;;;;;;;;;;4922000;28;89640;-69
2022/06/22 16:29:09;;;;;;;2.60;1.83;;;;;;;;;;4918119;28;88821;-68
2022/06/22 16:31:53;;;;;;;2.10;1.60;;;;;;;;;;4910324;28;88674;-68
2022/06/22 16:34:43;;;;;;;2.73;1.47;;;;;;;;;;4919840;28;89743;-68
2022/06/22 16:37:13;;;;;;;2.93;2.00;;;;;;;;;;4921473;28;90628;-68
2022/06/22 16:39:48;;;;;;;1.97;1.77;;;;;;;;;;4901756;28;88960;-68
2022/06/22 16:45:27;;;;;;;1.90;1.70;;;;;;;;;;4920925;28;89279;-68
2022/06/22 16:48:02;;;;;;;2.13;1.87;;;;;;;;;;4920953;28;89159;-69
2022/06/22 16:50:47;;;;;;;2.10;1.90;;;;;;;;;;4921426;28;88563;-70
2022/06/22 16:53:26;;;;;;;3.20;2.17;;;;;;;;;;4916789;28;88435;-69